sensor_id;sensor_type;location;lat;lon;timestamp;P1;durP1;ratioP1;P2;durP2;ratioP2
5117;SDS011;2578;51.622;7.046;2022-11-20T00:01:19;3.13;;;2.80;;
5117;SDS011;2578;51.622;7.046;2022-11-20T00:03:50;3.30;;;3.00;;
5117;SDS011;2578;51.622;7.046;2022-11-20T00:06:18;5.10;;;3.73;;
5117;SDS011;2578;51.622;7.046;2022-11-20T00:08:44;3.20;;;2.80;;
5117;SDS011;2578;51.622;7.046;2022-11-20T00:11:20;3.20;;;2.90;;
5117;SDS011;2578;51.622;7.046;2022-11-20T00:13:48;3.33;;;3.03;;
5117;SDS011;2578;51.622;7.046;2022-11-20T00:16:17;3.93;;;3.63;;
5117;SDS011;2578;51.622;7.046;2022-11-20T00:18:44;4.10;;;3.80;;
5117;SDS011;2578;51.622;7.046;2022-11-20T00:21:10;4.27;;;3.87;;
5117;SDS011;2578;51.622;7.046;2022-11-20T00:23:41;3.70;;;3.40;;
5117;SDS011;2578;51.622;7.046;2022-11-20T00:26:08;4.43;;;4.03;;
5117;SDS011;2578;51.622;7.046;2022-11-20T00:28:35;4.30;;;3.90;;
5117;SDS011;2578;51.622;7.046;2022-11-20T00:31:05;3.80;;;3.50;;
5117;SDS011;2578;51.622;7.046;2022-11-20T00:33:35;3.80;;;3.50;;
5117;SDS011;2578;51.622;7.046;2022-11-20T00:36:08;4.10;;;3.70;;
5117;SDS011;2578;51.622;7.046;2022-11-20T00:38:35;4.63;;;3.97;;
5117;SDS011;2578;51.622;7.046;2022-11-20T00:41:02;3.40;;;3.10;;
5117;SDS011;2578;51.622;7.046;2022-11-20T00:43:32;3.20;;;2.80;;
5117;SDS011;2578;51.622;7.046;2022-11-20T00:48:28;3.17;;;2.80;;
5117;SDS011;2578;51.622;7.046;2022-11-20T00:50:54;3.47;;;3.17;;
5117;SDS011;2578;51.622;7.046;2022-11-20T00:53:20;3.17;;;2.70;;
5117;SDS011;2578;51.622;7.046;2022-11-20T00:55:53;3.10;;;2.80;;
5117;SDS011;2578;51.622;7.046;2022-11-20T00:58:20;3.80;;;3.50;;
5117;SDS011;2578;51.622;7.046;2022-11-20T01:00:46;3.70;;;3.40;;
5117;SDS011;2578;51.622;7.046;2022-11-20T01:03:12;3.80;;;3.50;;
5117;SDS011;2578;51.622;7.046;2022-11-20T01:05:37;7.10;;;5.70;;
5117;SDS011;2578;51.622;7.046;2022-11-20T01:08:03;4.10;;;3.80;;
5117;SDS011;2578;51.622;7.046;2022-11-20T01:10:29;4.00;;;3.70;;
5117;SDS011;2578;51.622;7.046;2022-11-20T01:12:54;4.10;;;3.80;;
5117;SDS011;2578;51.622;7.046;2022-11-20T01:15:38;3.90;;;3.60;;
5117;SDS011;2578;51.622;7.046;2022-11-20T01:18:04;3.70;;;3.40;;
5117;SDS011;2578;51.622;7.046;2022-11-20T01:20:30;3.20;;;2.80;;
5117;SDS011;2578;51.622;7.046;2022-11-20T01:22:59;4.10;;;3.30;;
5117;SDS011;2578;51.622;7.046;2022-11-20T01:25:25;3.07;;;2.50;;
5117;SDS011;2578;51.622;7.046;2022-11-20T01:27:50;3.10;;;2.50;;
5117;SDS011;2578;51.622;7.046;2022-11-20T01:30:16;3.17;;;2.73;;
5117;SDS011;2578;51.622;7.046;2022-11-20T01:32:42;3.10;;;2.60;;
5117;SDS011;2578;51.622;7.046;2022-11-20T01:35:07;3.00;;;2.60;;
5117;SDS011;2578;51.622;7.046;2022-11-20T01:37:34;3.20;;;2.90;;
5117;SDS011;2578;51.622;7.046;2022-11-20T01:40:00;4.30;;;3.90;;
5117;SDS011;2578;51.622;7.046;2022-11-20T01:42:26;4.00;;;3.70;;
5117;SDS011;2578;51.622;7.046;2022-11-20T01:48:14;3.60;;;3.30;;
5117;SDS011;2578;51.622;7.046;2022-11-20T01:50:40;3.30;;;3.00;;
5117;SDS011;2578;51.622;7.046;2022-11-20T01:53:08;3.40;;;3.10;;
5117;SDS011;2578;51.622;7.046;2022-11-20T01:55:39;3.70;;;3.40;;
5117;SDS011;2578;51.622;7.046;2022-11-20T01:58:10;3.60;;;3.30;;
5117;SDS011;2578;51.622;7.046;2022-11-20T02:00:36;3.80;;;3.50;;
5117;SDS011;2578;51.622;7.046;2022-11-20T02:03:03;3.20;;;2.80;;
5117;SDS011;2578;51.622;7.046;2022-11-20T02:08:31;3.20;;;2.70;;
5117;SDS011;2578;51.622;7.046;2022-11-20T02:10:57;3.20;;;2.90;;
5117;SDS011;2578;51.622;7.046;2022-11-20T02:13:23;3.20;;;2.80;;
5117;SDS011;2578;51.622;7.046;2022-11-20T02:16:15;4.03;;;3.63;;
5117;SDS011;2578;51.622;7.046;2022-11-20T02:18:46;3.83;;;3.50;;
5117;SDS011;2578;51.622;7.046;2022-11-20T02:26:21;3.80;;;3.50;;
5117;SDS011;2578;51.622;7.046;2022-11-20T02:28:48;3.83;;;3.53;;
5117;SDS011;2578;51.622;7.046;2022-11-20T02:31:14;3.70;;;3.40;;
5117;SDS011;2578;51.622;7.046;2022-11-20T02:33:40;3.90;;;3.60;;
5117;SDS011;2578;51.622;7.046;2022-11-20T02:36:07;3.90;;;3.60;;
5117;SDS011;2578;51.622;7.046;2022-11-20T02:38:36;3.80;;;3.50;;
5117;SDS011;2578;51.622;7.046;2022-11-20T02:41:02;3.20;;;2.80;;
5117;SDS011;2578;51.622;7.046;2022-11-20T02:43:27;3.20;;;2.80;;
5117;SDS011;2578;51.622;7.046;2022-11-20T02:45:53;3.50;;;3.20;;
5117;SDS011;2578;51.622;7.046;2022-11-20T02:48:18;3.27;;;2.90;;
5117;SDS011;2578;51.622;7.046;2022-11-20T02:50:44;3.37;;;3.07;;
5117;SDS011;2578;51.622;7.046;2022-11-20T02:53:09;3.50;;;3.20;;
5117;SDS011;2578;51.622;7.046;2022-11-20T02:55:35;3.40;;;3.10;;
5117;SDS011;2578;51.622;7.046;2022-11-20T02:58:01;4.10;;;3.80;;
5117;SDS011;2578;51.622;7.046;2022-11-20T03:00:26;4.23;;;3.90;;
5117;SDS011;2578;51.622;7.046;2022-11-20T03:02:52;4.00;;;3.70;;
5117;SDS011;2578;51.622;7.046;2022-11-20T03:05:17;3.90;;;3.60;;
5117;SDS011;2578;51.622;7.046;2022-11-20T03:07:43;4.10;;;3.80;;
5117;SDS011;2578;51.622;7.046;2022-11-20T03:10:09;4.00;;;3.70;;
5117;SDS011;2578;51.622;7.046;2022-11-20T03:12:34;4.23;;;3.83;;
5117;SDS011;2578;51.622;7.046;2022-11-20T03:15:00;4.30;;;4.00;;
5117;SDS011;2578;51.622;7.046;2022-11-20T03:17:26;4.00;;;3.70;;
5117;SDS011;2578;51.622;7.046;2022-11-20T03:19:51;3.30;;;3.00;;
5117;SDS011;2578;51.622;7.046;2022-11-20T03:22:17;3.30;;;3.00;;
5117;SDS011;2578;51.622;7.046;2022-11-20T03:24:42;3.50;;;3.20;;
5117;SDS011;2578;51.622;7.046;2022-11-20T03:27:08;3.60;;;3.30;;
5117;SDS011;2578;51.622;7.046;2022-11-20T03:29:34;3.37;;;3.07;;
5117;SDS011;2578;51.622;7.046;2022-11-20T03:32:00;3.20;;;2.90;;
5117;SDS011;2578;51.622;7.046;2022-11-20T03:34:26;4.13;;;3.80;;
5117;SDS011;2578;51.622;7.046;2022-11-20T03:36:51;4.20;;;3.80;;
5117;SDS011;2578;51.622;7.046;2022-11-20T03:39:17;4.13;;;3.80;;
5117;SDS011;2578;51.622;7.046;2022-11-20T03:41:42;4.10;;;3.80;;
5117;SDS011;2578;51.622;7.046;2022-11-20T03:44:09;4.53;;;4.13;;
5117;SDS011;2578;51.622;7.046;2022-11-20T03:46:36;4.30;;;3.90;;
5117;SDS011;2578;51.622;7.046;2022-11-20T03:49:01;4.20;;;3.90;;
5117;SDS011;2578;51.622;7.046;2022-11-20T03:51:29;4.40;;;4.00;;
5117;SDS011;2578;51.622;7.046;2022-11-20T03:53:56;4.47;;;4.07;;
5117;SDS011;2578;51.622;7.046;2022-11-20T03:56:25;3.73;;;3.43;;
5117;SDS011;2578;51.622;7.046;2022-11-20T03:58:52;3.70;;;3.40;;
5117;SDS011;2578;51.622;7.046;2022-11-20T04:01:18;6.10;;;5.60;;
5117;SDS011;2578;51.622;7.046;2022-11-20T04:03:46;3.77;;;3.47;;
5117;SDS011;2578;51.622;7.046;2022-11-20T04:06:13;8.90;;;6.33;;
5117;SDS011;2578;51.622;7.046;2022-11-20T04:08:43;3.53;;;3.23;;
5117;SDS011;2578;51.622;7.046;2022-11-20T04:13:38;3.50;;;3.20;;
5117;SDS011;2578;51.622;7.046;2022-11-20T04:16:08;3.83;;;3.53;;
5117;SDS011;2578;51.622;7.046;2022-11-20T04:18:34;3.90;;;3.60;;
5117;SDS011;2578;51.622;7.046;2022-11-20T04:21:01;4.00;;;3.70;;
5117;SDS011;2578;51.622;7.046;2022-11-20T04:23:28;4.17;;;3.80;;
5117;SDS011;2578;51.622;7.046;2022-11-20T04:25:54;4.00;;;3.70;;
5117;SDS011;2578;51.622;7.046;2022-11-20T04:28:20;3.67;;;3.37;;
5117;SDS011;2578;51.622;7.046;2022-11-20T04:30:45;3.80;;;3.50;;
5117;SDS011;2578;51.622;7.046;2022-11-20T04:33:11;3.60;;;3.30;;
5117;SDS011;2578;51.622;7.046;2022-11-20T04:35:37;3.60;;;3.30;;
5117;SDS011;2578;51.622;7.046;2022-11-20T04:38:03;3.80;;;3.50;;
5117;SDS011;2578;51.622;7.046;2022-11-20T04:40:29;3.50;;;3.20;;
5117;SDS011;2578;51.622;7.046;2022-11-20T04:42:55;3.50;;;3.20;;
5117;SDS011;2578;51.622;7.046;2022-11-20T04:45:22;3.50;;;3.20;;
5117;SDS011;2578;51.622;7.046;2022-11-20T04:47:48;3.20;;;2.90;;
5117;SDS011;2578;51.622;7.046;2022-11-20T04:50:13;3.00;;;2.40;;
5117;SDS011;2578;51.622;7.046;2022-11-20T04:52:39;3.10;;;2.50;;
5117;SDS011;2578;51.622;7.046;2022-11-20T04:55:05;3.03;;;2.40;;
5117;SDS011;2578;51.622;7.046;2022-11-20T04:57:31;3.00;;;2.20;;
5117;SDS011;2578;51.622;7.046;2022-11-20T04:59:56;3.30;;;3.00;;
5117;SDS011;2578;51.622;7.046;2022-11-20T05:02:22;3.30;;;2.80;;
5117;SDS011;2578;51.622;7.046;2022-11-20T05:04:47;3.20;;;2.80;;
5117;SDS011;2578;51.622;7.046;2022-11-20T05:07:13;3.27;;;2.80;;
5117;SDS011;2578;51.622;7.046;2022-11-20T05:09:39;5.40;;;4.90;;
5117;SDS011;2578;51.622;7.046;2022-11-20T05:12:06;4.23;;;3.83;;
5117;SDS011;2578;51.622;7.046;2022-11-20T05:14:32;3.30;;;3.00;;
5117;SDS011;2578;51.622;7.046;2022-11-20T05:16:58;3.20;;;2.70;;
5117;SDS011;2578;51.622;7.046;2022-11-20T05:19:23;3.20;;;2.80;;
5117;SDS011;2578;51.622;7.046;2022-11-20T05:21:49;3.30;;;2.83;;
5117;SDS011;2578;51.622;7.046;2022-11-20T05:24:15;3.20;;;2.70;;
5117;SDS011;2578;51.622;7.046;2022-11-20T05:26:40;3.27;;;2.70;;
5117;SDS011;2578;51.622;7.046;2022-11-20T05:29:06;3.33;;;2.90;;
5117;SDS011;2578;51.622;7.046;2022-11-20T05:31:31;6.00;;;5.50;;
5117;SDS011;2578;51.622;7.046;2022-11-20T05:33:57;3.10;;;2.30;;
5117;SDS011;2578;51.622;7.046;2022-11-20T05:36:23;3.87;;;3.27;;
5117;SDS011;2578;51.622;7.046;2022-11-20T05:38:49;3.10;;;2.40;;
5117;SDS011;2578;51.622;7.046;2022-11-20T05:41:15;3.30;;;2.77;;
5117;SDS011;2578;51.622;7.046;2022-11-20T05:43:43;3.40;;;3.10;;
5117;SDS011;2578;51.622;7.046;2022-11-20T05:46:11;3.57;;;3.27;;
5117;SDS011;2578;51.622;7.046;2022-11-20T05:48:39;3.30;;;3.00;;
5117;SDS011;2578;51.622;7.046;2022-11-20T05:51:06;4.10;;;3.70;;
5117;SDS011;2578;51.622;7.046;2022-11-20T05:53:34;3.70;;;3.40;;
5117;SDS011;2578;51.622;7.046;2022-11-20T05:56:01;3.60;;;3.30;;
5117;SDS011;2578;51.622;7.046;2022-11-20T05:58:31;3.53;;;3.23;;
5117;SDS011;2578;51.622;7.046;2022-11-20T06:01:14;3.70;;;3.40;;
5117;SDS011;2578;51.622;7.046;2022-11-20T06:03:42;3.80;;;3.50;;
5117;SDS011;2578;51.622;7.046;2022-11-20T06:06:10;4.20;;;3.80;;
5117;SDS011;2578;51.622;7.046;2022-11-20T06:08:37;3.90;;;3.60;;
5117;SDS011;2578;51.622;7.046;2022-11-20T06:11:03;4.30;;;3.90;;
5117;SDS011;2578;51.622;7.046;2022-11-20T06:13:30;4.20;;;3.80;;
5117;SDS011;2578;51.622;7.046;2022-11-20T06:15:56;4.30;;;3.90;;
5117;SDS011;2578;51.622;7.046;2022-11-20T06:18:21;3.90;;;3.60;;
5117;SDS011;2578;51.622;7.046;2022-11-20T06:20:47;4.13;;;3.80;;
5117;SDS011;2578;51.622;7.046;2022-11-20T06:23:12;4.50;;;4.10;;
5117;SDS011;2578;51.622;7.046;2022-11-20T06:25:38;4.20;;;3.83;;
5117;SDS011;2578;51.622;7.046;2022-11-20T06:28:05;3.60;;;3.30;;
5117;SDS011;2578;51.622;7.046;2022-11-20T06:30:30;3.60;;;3.30;;
5117;SDS011;2578;51.622;7.046;2022-11-20T06:32:56;4.67;;;4.27;;
5117;SDS011;2578;51.622;7.046;2022-11-20T06:35:21;3.90;;;3.60;;
5117;SDS011;2578;51.622;7.046;2022-11-20T06:37:47;3.73;;;3.43;;
5117;SDS011;2578;51.622;7.046;2022-11-20T06:40:12;4.10;;;3.80;;
5117;SDS011;2578;51.622;7.046;2022-11-20T06:42:38;3.70;;;3.40;;
5117;SDS011;2578;51.622;7.046;2022-11-20T06:45:04;3.70;;;3.40;;
5117;SDS011;2578;51.622;7.046;2022-11-20T06:47:30;3.70;;;3.40;;
5117;SDS011;2578;51.622;7.046;2022-11-20T06:49:55;3.90;;;3.60;;
5117;SDS011;2578;51.622;7.046;2022-11-20T06:52:21;3.70;;;3.40;;
5117;SDS011;2578;51.622;7.046;2022-11-20T06:54:46;5.70;;;4.47;;
5117;SDS011;2578;51.622;7.046;2022-11-20T06:57:12;4.00;;;3.70;;
5117;SDS011;2578;51.622;7.046;2022-11-20T06:59:37;3.80;;;3.50;;
5117;SDS011;2578;51.622;7.046;2022-11-20T07:02:03;3.93;;;3.63;;
5117;SDS011;2578;51.622;7.046;2022-11-20T07:04:29;3.90;;;3.60;;
5117;SDS011;2578;51.622;7.046;2022-11-20T07:06:54;3.83;;;3.53;;
5117;SDS011;2578;51.622;7.046;2022-11-20T07:09:20;3.90;;;3.60;;
5117;SDS011;2578;51.622;7.046;2022-11-20T07:11:45;3.80;;;3.50;;
5117;SDS011;2578;51.622;7.046;2022-11-20T07:14:11;4.70;;;4.30;;
5117;SDS011;2578;51.622;7.046;2022-11-20T07:16:36;3.70;;;3.40;;
5117;SDS011;2578;51.622;7.046;2022-11-20T07:19:02;3.70;;;3.40;;
5117;SDS011;2578;51.622;7.046;2022-11-20T07:21:27;3.60;;;3.30;;
5117;SDS011;2578;51.622;7.046;2022-11-20T07:23:53;3.40;;;3.10;;
5117;SDS011;2578;51.622;7.046;2022-11-20T07:26:19;3.43;;;3.13;;
5117;SDS011;2578;51.622;7.046;2022-11-20T07:28:44;12.23;;;11.33;;
5117;SDS011;2578;51.622;7.046;2022-11-20T07:31:10;3.20;;;2.80;;
5117;SDS011;2578;51.622;7.046;2022-11-20T07:33:37;3.20;;;2.60;;
5117;SDS011;2578;51.622;7.046;2022-11-20T07:36:03;3.13;;;2.47;;
5117;SDS011;2578;51.622;7.046;2022-11-20T07:38:29;3.00;;;2.20;;
5117;SDS011;2578;51.622;7.046;2022-11-20T07:40:56;3.10;;;2.30;;
5117;SDS011;2578;51.622;7.046;2022-11-20T07:43:26;3.00;;;2.00;;
5117;SDS011;2578;51.622;7.046;2022-11-20T07:45:54;3.00;;;1.90;;
5117;SDS011;2578;51.622;7.046;2022-11-20T07:48:21;3.10;;;1.80;;
5117;SDS011;2578;51.622;7.046;2022-11-20T07:50:47;3.13;;;2.10;;
5117;SDS011;2578;51.622;7.046;2022-11-20T07:53:12;2.93;;;1.90;;
5117;SDS011;2578;51.622;7.046;2022-11-20T07:55:39;2.90;;;1.80;;
5117;SDS011;2578;51.622;7.046;2022-11-20T07:58:04;3.00;;;1.90;;
5117;SDS011;2578;51.622;7.046;2022-11-20T08:00:30;2.90;;;1.60;;
5117;SDS011;2578;51.622;7.046;2022-11-20T08:02:56;2.80;;;1.60;;
5117;SDS011;2578;51.622;7.046;2022-11-20T08:05:21;2.93;;;1.80;;
5117;SDS011;2578;51.622;7.046;2022-11-20T08:07:47;2.83;;;1.80;;
5117;SDS011;2578;51.622;7.046;2022-11-20T08:10:13;2.80;;;1.60;;
5117;SDS011;2578;51.622;7.046;2022-11-20T08:12:48;2.97;;;1.70;;
5117;SDS011;2578;51.622;7.046;2022-11-20T08:15:36;2.90;;;1.87;;
5117;SDS011;2578;51.622;7.046;2022-11-20T08:18:04;2.93;;;1.80;;
5117;SDS011;2578;51.622;7.046;2022-11-20T08:20:31;5.00;;;2.97;;
5117;SDS011;2578;51.622;7.046;2022-11-20T08:23:00;3.00;;;1.70;;
5117;SDS011;2578;51.622;7.046;2022-11-20T08:25:30;3.70;;;2.93;;
5117;SDS011;2578;51.622;7.046;2022-11-20T08:27:57;3.00;;;1.80;;
5117;SDS011;2578;51.622;7.046;2022-11-20T08:30:23;4.70;;;3.40;;
5117;SDS011;2578;51.622;7.046;2022-11-20T08:32:49;2.97;;;1.70;;
5117;SDS011;2578;51.622;7.046;2022-11-20T08:35:15;2.90;;;1.50;;
5117;SDS011;2578;51.622;7.046;2022-11-20T08:37:40;3.00;;;1.93;;
5117;SDS011;2578;51.622;7.046;2022-11-20T08:40:08;3.00;;;1.70;;
5117;SDS011;2578;51.622;7.046;2022-11-20T08:42:35;3.77;;;1.80;;
5117;SDS011;2578;51.622;7.046;2022-11-20T08:45:00;2.97;;;1.30;;
5117;SDS011;2578;51.622;7.046;2022-11-20T08:47:26;3.00;;;1.40;;
5117;SDS011;2578;51.622;7.046;2022-11-20T08:49:51;3.07;;;1.50;;
5117;SDS011;2578;51.622;7.046;2022-11-20T08:52:17;3.23;;;1.80;;
5117;SDS011;2578;51.622;7.046;2022-11-20T08:54:42;4.07;;;2.17;;
5117;SDS011;2578;51.622;7.046;2022-11-20T08:57:08;3.00;;;1.50;;
5117;SDS011;2578;51.622;7.046;2022-11-20T08:59:34;3.10;;;1.70;;
5117;SDS011;2578;51.622;7.046;2022-11-20T09:01:59;3.30;;;2.00;;
5117;SDS011;2578;51.622;7.046;2022-11-20T09:04:25;3.30;;;2.10;;
5117;SDS011;2578;51.622;7.046;2022-11-20T09:06:50;3.50;;;2.50;;
5117;SDS011;2578;51.622;7.046;2022-11-20T09:09:17;3.80;;;3.40;;
5117;SDS011;2578;51.622;7.046;2022-11-20T09:11:43;6.30;;;5.80;;
5117;SDS011;2578;51.622;7.046;2022-11-20T09:14:09;9.87;;;9.17;;
5117;SDS011;2578;51.622;7.046;2022-11-20T09:16:34;12.60;;;11.80;;
5117;SDS011;2578;51.622;7.046;2022-11-20T09:19:00;18.00;;;16.70;;
5117;SDS011;2578;51.622;7.046;2022-11-20T09:21:26;20.70;;;19.20;;
5117;SDS011;2578;51.622;7.046;2022-11-20T09:23:51;27.93;;;25.83;;
5117;SDS011;2578;51.622;7.046;2022-11-20T09:26:17;26.60;;;24.50;;
5117;SDS011;2578;51.622;7.046;2022-11-20T09:28:42;29.87;;;27.47;;
5117;SDS011;2578;51.622;7.046;2022-11-20T09:31:09;35.77;;;32.53;;
5117;SDS011;2578;51.622;7.046;2022-11-20T09:33:48;30.57;;;27.87;;
5117;SDS011;2578;51.622;7.046;2022-11-20T09:36:14;28.70;;;26.10;;
5117;SDS011;2578;51.622;7.046;2022-11-20T09:38:40;27.23;;;24.83;;
5117;SDS011;2578;51.622;7.046;2022-11-20T09:41:06;27.80;;;25.30;;
5117;SDS011;2578;51.622;7.046;2022-11-20T09:46:29;28.60;;;26.00;;
5117;SDS011;2578;51.622;7.046;2022-11-20T09:49:38;29.40;;;26.70;;
5117;SDS011;2578;51.622;7.046;2022-11-20T09:55:02;28.63;;;25.87;;
5117;SDS011;2578;51.622;7.046;2022-11-20T09:57:36;25.97;;;23.77;;
5117;SDS011;2578;51.622;7.046;2022-11-20T10:00:04;24.70;;;22.70;;
5117;SDS011;2578;51.622;7.046;2022-11-20T10:05:17;27.83;;;25.10;;
5117;SDS011;2578;51.622;7.046;2022-11-20T10:07:55;24.87;;;22.77;;
5117;SDS011;2578;51.622;7.046;2022-11-20T10:10:45;25.70;;;23.50;;
5117;SDS011;2578;51.622;7.046;2022-11-20T10:24:55;26.63;;;24.43;;
5117;SDS011;2578;51.622;7.046;2022-11-20T10:30:30;28.03;;;25.63;;
5117;SDS011;2578;51.622;7.046;2022-11-20T10:33:13;25.50;;;23.50;;
5117;SDS011;2578;51.622;7.046;2022-11-20T10:35:43;26.80;;;24.60;;
5117;SDS011;2578;51.622;7.046;2022-11-20T10:38:19;22.60;;;20.90;;
5117;SDS011;2578;51.622;7.046;2022-11-20T10:40:49;20.80;;;19.30;;
5117;SDS011;2578;51.622;7.046;2022-11-20T10:43:29;21.67;;;20.17;;
5117;SDS011;2578;51.622;7.046;2022-11-20T10:46:12;19.43;;;18.03;;
5117;SDS011;2578;51.622;7.046;2022-11-20T10:48:50;18.60;;;17.40;;
5117;SDS011;2578;51.622;7.046;2022-11-20T10:54:26;16.30;;;15.30;;
5117;SDS011;2578;51.622;7.046;2022-11-20T10:57:00;16.77;;;15.67;;
5117;SDS011;2578;51.622;7.046;2022-11-20T11:02:30;16.60;;;15.40;;
5117;SDS011;2578;51.622;7.046;2022-11-20T11:05:10;14.07;;;13.20;;
5117;SDS011;2578;51.622;7.046;2022-11-20T11:07:56;13.90;;;12.90;;
5117;SDS011;2578;51.622;7.046;2022-11-20T11:13:07;12.20;;;11.50;;
5117;SDS011;2578;51.622;7.046;2022-11-20T11:15:45;11.90;;;11.20;;
5117;SDS011;2578;51.622;7.046;2022-11-20T11:18:10;15.53;;;14.50;;
5117;SDS011;2578;51.622;7.046;2022-11-20T11:20:37;12.50;;;11.70;;
5117;SDS011;2578;51.622;7.046;2022-11-20T11:23:03;12.63;;;11.83;;
5117;SDS011;2578;51.622;7.046;2022-11-20T11:28:00;14.23;;;13.17;;
5117;SDS011;2578;51.622;7.046;2022-11-20T11:30:28;15.27;;;14.10;;
5117;SDS011;2578;51.622;7.046;2022-11-20T11:33:06;13.20;;;12.30;;
5117;SDS011;2578;51.622;7.046;2022-11-20T11:35:38;13.77;;;12.50;;
5117;SDS011;2578;51.622;7.046;2022-11-20T11:38:13;12.27;;;11.50;;
5117;SDS011;2578;51.622;7.046;2022-11-20T11:41:00;11.50;;;10.80;;
5117;SDS011;2578;51.622;7.046;2022-11-20T11:43:29;13.10;;;12.30;;
5117;SDS011;2578;51.622;7.046;2022-11-20T11:51:31;11.57;;;10.60;;
5117;SDS011;2578;51.622;7.046;2022-11-20T11:54:25;11.90;;;11.10;;
5117;SDS011;2578;51.622;7.046;2022-11-20T11:56:58;13.23;;;12.30;;
5117;SDS011;2578;51.622;7.046;2022-11-20T12:02:24;14.60;;;13.50;;
5117;SDS011;2578;51.622;7.046;2022-11-20T12:04:59;15.67;;;14.47;;
5117;SDS011;2578;51.622;7.046;2022-11-20T12:07:43;15.00;;;14.10;;
5117;SDS011;2578;51.622;7.046;2022-11-20T12:13:32;12.93;;;12.13;;
5117;SDS011;2578;51.622;7.046;2022-11-20T12:16:00;11.50;;;10.80;;
5117;SDS011;2578;51.622;7.046;2022-11-20T12:18:29;10.03;;;9.43;;
5117;SDS011;2578;51.622;7.046;2022-11-20T12:29:21;13.53;;;12.23;;
5117;SDS011;2578;51.622;7.046;2022-11-20T12:37:29;11.33;;;10.40;;
5117;SDS011;2578;51.622;7.046;2022-11-20T12:39:58;9.63;;;8.83;;
5117;SDS011;2578;51.622;7.046;2022-11-20T12:42:38;14.00;;;12.90;;
5117;SDS011;2578;51.622;7.046;2022-11-20T12:48:36;9.63;;;8.83;;
5117;SDS011;2578;51.622;7.046;2022-11-20T12:51:18;8.83;;;8.10;;
5117;SDS011;2578;51.622;7.046;2022-11-20T13:02:25;8.40;;;7.80;;
5117;SDS011;2578;51.622;7.046;2022-11-20T13:08:02;7.73;;;7.20;;
5117;SDS011;2578;51.622;7.046;2022-11-20T13:16:30;6.03;;;5.63;;
5117;SDS011;2578;51.622;7.046;2022-11-20T13:19:03;5.90;;;5.40;;
5117;SDS011;2578;51.622;7.046;2022-11-20T13:21:37;7.30;;;6.60;;
5117;SDS011;2578;51.622;7.046;2022-11-20T13:24:29;6.17;;;5.67;;
5117;SDS011;2578;51.622;7.046;2022-11-20T13:29:30;7.73;;;7.03;;
5117;SDS011;2578;51.622;7.046;2022-11-20T13:34:52;28.13;;;9.43;;
5117;SDS011;2578;51.622;7.046;2022-11-20T13:37:25;8.37;;;7.63;;
5117;SDS011;2578;51.622;7.046;2022-11-20T13:40:11;8.05;;;7.35;;
5117;SDS011;2578;51.622;7.046;2022-11-20T13:43:26;6.87;;;6.03;;
5117;SDS011;2578;51.622;7.046;2022-11-20T13:45:28;8.50;;;7.60;;
5117;SDS011;2578;51.622;7.046;2022-11-20T13:47:56;8.03;;;7.30;;
5117;SDS011;2578;51.622;7.046;2022-11-20T13:50:44;6.87;;;6.37;;
5117;SDS011;2578;51.622;7.046;2022-11-20T13:53:26;7.00;;;6.43;;
5117;SDS011;2578;51.622;7.046;2022-11-20T13:56:34;6.30;;;5.70;;
5117;SDS011;2578;51.622;7.046;2022-11-20T13:59:24;6.57;;;6.07;;
5117;SDS011;2578;51.622;7.046;2022-11-20T14:01:55;5.80;;;5.30;;
5117;SDS011;2578;51.622;7.046;2022-11-20T14:04:28;5.37;;;4.97;;
5117;SDS011;2578;51.622;7.046;2022-11-20T14:06:57;6.30;;;5.80;;
5117;SDS011;2578;51.622;7.046;2022-11-20T14:09:30;5.57;;;5.07;;
5117;SDS011;2578;51.622;7.046;2022-11-20T14:11:57;6.90;;;6.30;;
5117;SDS011;2578;51.622;7.046;2022-11-20T14:14:27;7.30;;;6.77;;
5117;SDS011;2578;51.622;7.046;2022-11-20T14:17:07;6.40;;;5.82;;
5117;SDS011;2578;51.622;7.046;2022-11-20T14:19:41;7.37;;;6.80;;
5117;SDS011;2578;51.622;7.046;2022-11-20T14:22:17;5.70;;;5.20;;
5117;SDS011;2578;51.622;7.046;2022-11-20T14:25:06;7.07;;;5.80;;
5117;SDS011;2578;51.622;7.046;2022-11-20T14:27:42;5.27;;;4.87;;
5117;SDS011;2578;51.622;7.046;2022-11-20T14:30:12;8.00;;;7.20;;
5117;SDS011;2578;51.622;7.046;2022-11-20T14:32:39;7.40;;;6.70;;
5117;SDS011;2578;51.622;7.046;2022-11-20T14:35:08;5.27;;;4.77;;
5117;SDS011;2578;51.622;7.046;2022-11-20T14:37:37;7.30;;;6.70;;
5117;SDS011;2578;51.622;7.046;2022-11-20T14:40:05;8.13;;;7.43;;
5117;SDS011;2578;51.622;7.046;2022-11-20T14:42:48;6.80;;;6.30;;
5117;SDS011;2578;51.622;7.046;2022-11-20T14:45:14;6.87;;;6.37;;
5117;SDS011;2578;51.622;7.046;2022-11-20T14:47:41;6.13;;;5.63;;
5117;SDS011;2578;51.622;7.046;2022-11-20T14:50:12;6.43;;;5.83;;
5117;SDS011;2578;51.622;7.046;2022-11-20T14:52:49;5.70;;;5.20;;
5117;SDS011;2578;51.622;7.046;2022-11-20T14:55:32;7.77;;;7.17;;
5117;SDS011;2578;51.622;7.046;2022-11-20T14:58:06;8.47;;;7.10;;
5117;SDS011;2578;51.622;7.046;2022-11-20T15:00:57;6.37;;;5.77;;
5117;SDS011;2578;51.622;7.046;2022-11-20T15:03:35;9.93;;;5.60;;
5117;SDS011;2578;51.622;7.046;2022-11-20T15:06:02;8.00;;;6.90;;
5117;SDS011;2578;51.622;7.046;2022-11-20T15:08:28;6.20;;;5.70;;
5117;SDS011;2578;51.622;7.046;2022-11-20T15:10:54;8.00;;;7.30;;
5117;SDS011;2578;51.622;7.046;2022-11-20T15:13:30;10.10;;;6.33;;
5117;SDS011;2578;51.622;7.046;2022-11-20T15:16:01;6.13;;;5.23;;
5117;SDS011;2578;51.622;7.046;2022-11-20T15:18:30;9.53;;;8.60;;
5117;SDS011;2578;51.622;7.046;2022-11-20T15:20:58;12.43;;;6.50;;
5117;SDS011;2578;51.622;7.046;2022-11-20T15:23:27;8.23;;;7.60;;
5117;SDS011;2578;51.622;7.046;2022-11-20T15:25:54;13.53;;;8.80;;
5117;SDS011;2578;51.622;7.046;2022-11-20T15:28:21;10.07;;;9.37;;
5117;SDS011;2578;51.622;7.046;2022-11-20T15:30:51;7.57;;;7.07;;
5117;SDS011;2578;51.622;7.046;2022-11-20T15:33:17;9.43;;;8.60;;
5117;SDS011;2578;51.622;7.046;2022-11-20T15:35:43;13.90;;;8.30;;
5117;SDS011;2578;51.622;7.046;2022-11-20T15:38:09;8.60;;;8.00;;
5117;SDS011;2578;51.622;7.046;2022-11-20T15:40:34;10.80;;;9.87;;
5117;SDS011;2578;51.622;7.046;2022-11-20T15:43:00;19.63;;;11.33;;
5117;SDS011;2578;51.622;7.046;2022-11-20T15:45:30;11.40;;;10.60;;
5117;SDS011;2578;51.622;7.046;2022-11-20T15:48:20;13.97;;;10.83;;
5117;SDS011;2578;51.622;7.046;2022-11-20T15:50:52;14.20;;;12.90;;
5117;SDS011;2578;51.622;7.046;2022-11-20T15:53:34;11.80;;;10.70;;
5117;SDS011;2578;51.622;7.046;2022-11-20T15:56:00;11.73;;;10.83;;
5117;SDS011;2578;51.622;7.046;2022-11-20T15:58:26;13.17;;;12.00;;
5117;SDS011;2578;51.622;7.046;2022-11-20T16:00:52;11.90;;;11.20;;
5117;SDS011;2578;51.622;7.046;2022-11-20T16:03:18;13.67;;;12.23;;
5117;SDS011;2578;51.622;7.046;2022-11-20T16:05:44;9.90;;;9.30;;
5117;SDS011;2578;51.622;7.046;2022-11-20T16:08:10;14.67;;;13.47;;
5117;SDS011;2578;51.622;7.046;2022-11-20T16:10:35;13.10;;;11.97;;
5117;SDS011;2578;51.622;7.046;2022-11-20T16:13:01;14.03;;;13.13;;
5117;SDS011;2578;51.622;7.046;2022-11-20T16:15:50;13.50;;;12.60;;
5117;SDS011;2578;51.622;7.046;2022-11-20T16:18:18;13.80;;;12.60;;
5117;SDS011;2578;51.622;7.046;2022-11-20T16:20:45;14.07;;;12.90;;
5117;SDS011;2578;51.622;7.046;2022-11-20T16:23:13;14.43;;;13.23;;
5117;SDS011;2578;51.622;7.046;2022-11-20T16:25:40;14.97;;;13.90;;
5117;SDS011;2578;51.622;7.046;2022-11-20T16:28:06;17.40;;;16.10;;
5117;SDS011;2578;51.622;7.046;2022-11-20T16:30:32;12.90;;;12.10;;
5117;SDS011;2578;51.622;7.046;2022-11-20T16:32:59;13.07;;;12.17;;
5117;SDS011;2578;51.622;7.046;2022-11-20T16:35:28;13.47;;;12.40;;
5117;SDS011;2578;51.622;7.046;2022-11-20T16:37:56;12.80;;;11.80;;
5117;SDS011;2578;51.622;7.046;2022-11-20T16:40:22;13.73;;;12.93;;
5117;SDS011;2578;51.622;7.046;2022-11-20T16:42:48;14.90;;;13.77;;
5117;SDS011;2578;51.622;7.046;2022-11-20T16:45:14;12.60;;;11.80;;
5117;SDS011;2578;51.622;7.046;2022-11-20T16:47:40;11.67;;;10.97;;
5117;SDS011;2578;51.622;7.046;2022-11-20T16:50:06;12.17;;;11.47;;
5117;SDS011;2578;51.622;7.046;2022-11-20T16:52:32;12.87;;;12.07;;
5117;SDS011;2578;51.622;7.046;2022-11-20T16:54:57;13.67;;;12.67;;
5117;SDS011;2578;51.622;7.046;2022-11-20T16:57:23;11.43;;;10.73;;
5117;SDS011;2578;51.622;7.046;2022-11-20T16:59:51;15.37;;;14.27;;
5117;SDS011;2578;51.622;7.046;2022-11-20T17:02:17;11.50;;;10.80;;